Time;durP1;ratioP1;P1;durP2;ratioP2;P2;SDS_P1;SDS_P2;PMS_P1;PMS_P2;Temp;Humidity;BMP_temperature;BMP_pressure;BME280_temperature;BME280_humidity;BME280_pressure;Samples;Min_cycle;Max_cycle;Signal;HPM_P1;HPM_P2
2023/01/08 00:02:00;;;;;;;10.00;1.73;;;;;;;6.81;100.00;100284.16;5052730;28;20033;-70
2023/01/08 00:04:25;;;;;;;5.65;1.52;;;;;;;6.77;100.00;100277.44;5052394;28;20090;-70
2023/01/08 00:06:51;;;;;;;14.55;1.95;;;;;;;6.74;100.00;100275.88;5052684;28;20037;-70
2023/01/08 00:09:16;;;;;;;7.68;2.40;;;;;;;6.71;100.00;100268.22;5052005;28;20032;-69
2023/01/08 00:11:43;;;;;;;11.35;1.98;;;;;;;6.69;100.00;100278.91;5052315;28;20033;-70
2023/01/08 00:14:09;;;;;;;13.30;1.90;;;;;;;6.66;100.00;100271.25;5052186;28;20044;-71
2023/01/08 00:16:34;;;;;;;9.27;1.77;;;;;;;6.65;100.00;100271.38;5050721;28;20103;-71
2023/01/08 00:19:00;;;;;;;14.80;2.08;;;;;;;6.65;100.00;100261.63;5051990;28;20081;-70
2023/01/08 00:21:25;;;;;;;10.73;1.48;;;;;;;6.64;100.00;100261.75;5052289;28;20140;-70
2023/01/08 00:23:50;;;;;;;10.48;2.10;;;;;;;6.61;100.00;100259.38;5052118;28;20029;-70
2023/01/08 00:26:16;;;;;;;7.43;1.75;;;;;;;6.58;100.00;100251.69;5052059;28;20314;-70
2023/01/08 00:28:41;;;;;;;9.10;2.00;;;;;;;6.57;100.00;100252.66;5052199;28;20124;-70
2023/01/08 00:31:09;;;;;;;8.07;1.70;;;;;;;6.58;100.00;100238.47;5051886;28;20033;-71
2023/01/08 00:33:35;;;;;;;8.90;1.73;;;;;;;6.59;100.00;100238.34;5050206;28;20061;-70
2023/01/08 00:36:07;;;;;;;6.60;1.95;;;;;;;6.58;100.00;100234.03;5052026;28;20036;-71
2023/01/08 00:38:32;;;;;;;6.45;1.58;;;;;;;6.57;100.00;100228.88;5052182;28;20044;-70
2023/01/08 00:40:58;;;;;;;8.75;2.40;;;;;;;6.52;100.00;100237.19;5052001;28;20025;-70
2023/01/08 00:43:23;;;;;;;9.48;1.80;;;;;;;6.54;100.00;100232.63;5051287;28;20095;-70
2023/01/08 00:45:52;;;;;;;11.00;2.00;;;;;;;6.51;100.00;100225.78;5051476;28;20131;-70
2023/01/08 00:48:18;;;;;;;5.40;1.65;;;;;;;6.52;100.00;100218.69;5049869;28;20068;-69
2023/01/08 00:50:43;;;;;;;8.93;2.42;;;;;;;6.53;100.00;100225.66;5051597;28;20044;-69
2023/01/08 00:53:09;;;;;;;9.48;1.98;;;;;;;6.52;100.00;100221.31;5051739;28;20040;-70
2023/01/08 00:55:34;;;;;;;7.22;2.00;;;;;;;6.48;100.00;100220.75;5051744;28;20461;-70
2023/01/08 00:58:00;;;;;;;5.22;1.70;;;;;;;6.44;100.00;100219.31;5033073;28;20072;-70
2023/01/08 01:00:25;;;;;;;12.73;2.13;;;;;;;6.41;100.00;100216.09;5051886;28;20333;-70
2023/01/08 01:02:51;;;;;;;9.93;2.40;;;;;;;6.39;100.00;100218.03;5049821;28;20087;-71
2023/01/08 01:05:18;;;;;;;12.32;2.20;;;;;;;6.39;100.00;100213.59;5051606;28;20028;-69
2023/01/08 01:07:43;;;;;;;10.70;2.28;;;;;;;6.39;100.00;100213.59;5051675;28;20426;-70
2023/01/08 01:10:11;;;;;;;10.65;2.42;;;;;;;6.39;100.00;100204.81;5051311;28;20041;-70
2023/01/08 01:12:37;;;;;;;11.32;2.30;;;;;;;6.39;100.00;100212.72;5051287;28;20041;-70
2023/01/08 01:15:05;;;;;;;11.65;2.28;;;;;;;6.38;100.00;100213.72;5051641;28;20128;-71
2023/01/08 01:17:30;;;;;;;9.75;2.15;;;;;;;6.41;100.00;100206.38;5051431;28;20157;-71
2023/01/08 01:19:55;;;;;;;12.10;2.30;;;;;;;6.46;100.00;100203.34;5051320;28;20033;-71
2023/01/08 01:22:21;;;;;;;13.27;2.50;;;;;;;6.45;100.00;100205.16;5051085;28;20031;-69
2023/01/08 01:24:46;;;;;;;12.27;2.40;;;;;;;6.43;100.00;100206.25;5049739;28;20081;-70
2023/01/08 01:27:12;;;;;;;10.40;2.15;;;;;;;6.48;100.00;100212.81;5049647;28;20097;-76
2023/01/08 01:29:37;;;;;;;13.75;2.42;;;;;;;6.56;100.00;100214.81;5050963;28;20048;-70
2023/01/08 01:32:03;;;;;;;12.27;2.33;;;;;;;6.59;100.00;100205.81;5049444;28;20483;-70
2023/01/08 01:34:28;;;;;;;15.93;2.53;;;;;;;6.53;100.00;100204.50;5050857;28;20069;-69
2023/01/08 01:36:54;;;;;;;8.15;2.28;;;;;;;6.50;100.00;100215.34;5051300;28;20033;-69
2023/01/08 01:39:20;;;;;;;9.38;2.80;;;;;;;6.44;100.00;100215.84;5050815;28;20146;-70
2023/01/08 01:41:46;;;;;;;6.43;2.22;;;;;;;6.39;100.00;100210.94;5051115;28;20119;-71
2023/01/08 01:44:35;;;;;;;16.23;2.50;;;;;;;6.31;100.00;100211.56;5050831;28;20187;-70
2023/01/08 01:47:09;;;;;;;12.52;2.47;;;;;;;6.26;100.00;100208.47;5050604;28;20095;-70
2023/01/08 01:49:35;;;;;;;12.73;2.75;;;;;;;6.26;100.00;100219.03;5050907;28;20040;-70
2023/01/08 01:52:04;;;;;;;8.65;2.55;;;;;;;6.22;100.00;100217.59;5032685;28;20098;-70
2023/01/08 01:54:30;;;;;;;8.63;2.22;;;;;;;6.27;100.00;100214.59;5049796;28;20029;-70
2023/01/08 01:56:57;;;;;;;8.98;2.35;;;;;;;6.28;100.00;100214.47;5050205;28;20036;-71
2023/01/08 01:59:23;;;;;;;7.65;2.50;;;;;;;6.25;100.00;100214.72;5051064;28;20029;-72
2023/01/08 02:01:48;;;;;;;7.75;2.30;;;;;;;6.27;100.00;100220.72;5048601;28;20090;-71
2023/01/08 02:04:14;;;;;;;9.20;2.33;;;;;;;6.24;100.00;100217.47;5050494;28;20033;-69
2023/01/08 02:06:51;;;;;;;13.88;2.45;;;;;;;6.25;100.00;100219.16;5050712;28;20036;-70
2023/01/08 02:09:28;;;;;;;8.88;2.55;;;;;;;6.28;100.00;100217.09;5050771;28;20454;-69
2023/01/08 02:12:20;;;;;;;8.93;2.80;;;;;;;6.29;100.00;100207.38;5048910;28;20441;-70
2023/01/08 02:14:53;;;;;;;;;;;;;;;6.27;100.00;100207.53;5050703;28;20320;-70
2023/01/08 02:17:49;;;;;;;10.85;2.60;;;;;;;6.21;100.00;100196.59;5050357;28;19935;-77
2023/01/08 02:20:25;;;;;;;9.07;2.47;;;;;;;6.18;100.00;100197.72;5049181;28;20151;-71
2023/01/08 02:23:06;;;;;;;8.45;2.08;;;;;;;6.20;100.00;100197.59;5050324;28;20070;-70
2023/01/08 02:25:58;;;;;;;4.97;2.00;;;;;;;6.23;100.00;100192.88;5049974;28;20037;-70
2023/01/08 02:28:26;;;;;;;12.43;2.33;;;;;;;6.24;100.00;100194.56;5049957;28;20449;-70
2023/01/08 02:30:53;;;;;;;7.18;2.47;;;;;;;6.25;100.00;100206.78;5049953;28;20490;-70
2023/01/08 02:33:18;;;;;;;9.88;2.00;;;;;;;6.23;100.00;100215.81;5049806;28;20052;-70
2023/01/08 02:35:52;;;;;;;8.48;2.03;;;;;;;6.25;100.00;100200.69;5050147;28;20084;-69
2023/01/08 02:38:18;;;;;;;7.15;1.90;;;;;;;6.30;100.00;100193.19;5050038;28;20029;-69
2023/01/08 02:41:03;;;;;;;7.00;2.10;;;;;;;6.31;100.00;100181.66;5049824;28;20410;-70
2023/01/08 02:43:40;;;;;;;5.22;1.70;;;;;;;6.29;100.00;100186.25;5049606;28;20082;-70
2023/01/08 02:46:12;;;;;;;7.03;1.70;;;;;;;6.26;100.00;100189.16;5048430;28;20029;-69
2023/01/08 02:48:43;;;;;;;6.15;2.03;;;;;;;6.23;100.00;100198.16;5049699;28;20170;-70
2023/01/08 02:51:22;;;;;;;9.00;1.67;;;;;;;6.23;100.00;100198.16;5049999;28;20115;-71
2023/01/08 02:53:53;;;;;;;7.35;1.60;;;;;;;6.28;100.00;100195.97;5049383;28;20048;-70
2023/01/08 02:56:28;;;;;;;8.45;2.05;;;;;;;6.32;100.00;100200.03;5049607;28;20054;-70
2023/01/08 02:58:57;;;;;;;7.07;1.75;;;;;;;6.36;100.00;100195.34;5049398;28;20083;-70
2023/01/08 03:01:24;;;;;;;7.32;1.77;;;;;;;6.37;100.00;100209.41;5049573;28;20032;-70
2023/01/08 03:03:56;;;;;;;7.13;2.03;;;;;;;6.37;100.00;100199.66;5047762;28;20438;-70
2023/01/08 03:06:23;;;;;;;10.88;1.73;;;;;;;6.35;100.00;100196.31;5048845;28;20120;-70
2023/01/08 03:08:51;;;;;;;7.45;1.55;;;;;;;6.30;100.00;100195.84;5047681;28;20131;-70
2023/01/08 03:11:20;;;;;;;9.80;1.83;;;;;;;6.27;100.00;100196.09;5049206;28;20120;-70
2023/01/08 03:13:48;;;;;;;7.53;1.67;;;;;;;6.23;100.00;100195.53;5047484;28;20365;-70
2023/01/08 03:16:17;;;;;;;8.40;1.58;;;;;;;6.18;100.00;100192.44;5048912;28;20056;-70
2023/01/08 03:18:51;;;;;;;6.45;1.65;;;;;;;6.16;100.00;100181.13;5047667;28;20389;-70
2023/01/08 03:21:19;;;;;;;7.35;1.58;;;;;;;6.11;100.00;100180.69;5050995;28;20099;-83
2023/01/08 03:23:46;;;;;;;6.90;1.95;;;;;;;6.10;100.00;100186.94;5053396;28;20029;-85
2023/01/08 03:26:16;;;;;;;9.52;1.70;;;;;;;6.07;100.00;100188.00;5053122;28;20454;-84
2023/01/08 03:28:46;;;;;;;9.60;2.03;;;;;;;6.03;100.00;100189.25;5053216;28;20540;-84
2023/01/08 03:31:14;;;;;;;13.37;2.73;;;;;;;6.04;100.00;100180.34;5052698;28;20389;-85
2023/01/08 03:33:43;;;;;;;12.27;1.65;;;;;;;6.03;100.00;100176.03;5053442;28;20018;-86
2023/01/08 03:36:14;;;;;;;12.05;1.60;;;;;;;6.00;100.00;100174.47;5053147;28;20444;-84
2023/01/08 03:38:43;;;;;;;9.75;1.65;;;;;;;5.94;100.00;100167.03;5053429;28;20458;-85
2023/01/08 03:41:12;;;;;;;6.88;1.55;;;;;;;5.82;100.00;100163.59;5051778;28;20029;-86
2023/01/08 03:43:38;;;;;;;11.00;1.70;;;;;;;5.73;100.00;100166.13;5051634;28;20040;-84
2023/01/08 03:46:09;;;;;;;14.18;1.80;;;;;;;5.64;100.00;100179.13;5051533;28;20417;-84
2023/01/08 03:48:37;;;;;;;14.10;1.48;;;;;;;5.62;100.00;100180.19;5053217;28;20044;-84
2023/01/08 03:51:02;;;;;;;10.88;1.55;;;;;;;5.50;100.00;100171.47;5053118;28;20025;-85
2023/01/08 03:53:28;;;;;;;10.15;1.67;;;;;;;5.46;100.00;100185.84;5053012;28;20048;-84
2023/01/08 03:55:55;;;;;;;9.38;1.67;;;;;;;5.49;100.00;100188.25;5052358;28;20025;-86
2023/01/08 03:58:20;;;;;;;12.55;1.70;;;;;;;5.47;100.00;100179.63;5052891;28;20033;-86
2023/01/08 04:00:46;;;;;;;13.70;2.50;;;;;;;5.40;100.00;100175.78;5052992;28;20082;-83
2023/01/08 04:03:11;;;;;;;8.95;1.92;;;;;;;5.33;100.00;100172.81;5052810;28;20119;-83
2023/01/08 04:05:36;;;;;;;14.05;2.20;;;;;;;5.26;100.00;100169.81;5035022;28;20124;-83
2023/01/08 04:08:02;;;;;;;19.10;2.28;;;;;;;5.20;100.00;100166.81;5052576;28;20029;-84
2023/01/08 04:10:27;;;;;;;15.02;1.92;;;;;;;5.16;100.00;100165.38;5035169;28;20037;-84
2023/01/08 04:12:52;;;;;;;12.10;1.88;;;;;;;5.23;100.00;100169.22;5051583;28;20132;-83
2023/01/08 04:15:19;;;;;;;8.73;1.88;;;;;;;5.32;100.00;100172.94;5052285;28;20057;-83
2023/01/08 04:17:44;;;;;;;13.40;2.45;;;;;;;5.40;100.00;100170.50;5054476;28;20454;-84
2023/01/08 04:20:10;;;;;;;11.20;2.70;;;;;;;5.48;100.00;100173.41;5056557;28;20057;-84
2023/01/08 04:22:35;;;;;;;15.40;2.10;;;;;;;5.54;100.00;100166.75;5056648;28;20366;-84
2023/01/08 04:25:01;;;;;;;14.00;2.05;;;;;;;5.67;100.00;100169.25;5055909;28;20058;-83
2023/01/08 04:27:26;;;;;;;7.18;1.55;;;;;;;5.71;100.00;100168.88;5056080;28;20044;-85
2023/01/08 04:29:52;;;;;;;8.93;1.92;;;;;;;5.76;100.00;100173.78;5055834;28;20029;-86
2023/01/08 04:32:19;;;;;;;11.43;1.92;;;;;;;5.77;100.00;100168.38;5055639;28;20036;-85
2023/01/08 04:34:44;;;;;;;10.20;1.35;;;;;;;5.75;100.00;100170.31;5056584;28;20115;-81
2023/01/08 04:37:09;;;;;;;8.70;1.67;;;;;;;5.77;100.00;100163.13;5056240;28;20056;-84
2023/01/08 04:39:35;;;;;;;12.65;2.13;;;;;;;5.79;100.00;100162.97;5056366;28;20075;-85
2023/01/08 04:42:00;;;;;;;10.30;2.10;;;;;;;5.70;100.00;100151.38;5054621;28;20400;-85
2023/01/08 04:44:26;;;;;;;10.40;1.70;;;;;;;5.65;100.00;100156.19;5056396;28;20033;-84
2023/01/08 04:46:52;;;;;;;6.32;2.38;;;;;;;5.54;100.00;100162.34;5054468;28;20543;-84
2023/01/08 04:49:18;;;;;;;8.85;2.03;;;;;;;5.43;100.00;100155.28;5055774;28;20041;-85
2023/01/08 04:51:43;;;;;;;9.52;2.45;;;;;;;5.35;100.00;100154.22;5054321;28;20047;-86
2023/01/08 04:54:09;;;;;;;7.55;1.83;;;;;;;5.27;100.00;100152.19;5056235;28;20091;-86
2023/01/08 04:56:34;;;;;;;12.35;2.35;;;;;;;5.20;100.00;100149.19;5055632;28;20036;-87
2023/01/08 04:58:59;;;;;;;10.77;2.05;;;;;;;5.24;100.00;100145.34;5055605;28;20029;-85
2023/01/08 05:01:26;;;;;;;7.13;1.60;;;;;;;5.24;100.00;100149.78;5055508;28;20104;-86
2023/01/08 05:03:57;;;;;;;11.27;1.50;;;;;;;5.25;100.00;100151.47;5055848;28;20025;-85
2023/01/08 05:06:23;;;;;;;14.13;1.88;;;;;;;5.19;100.00;100149.31;5055397;28;20024;-83
2023/01/08 05:08:49;;;;;;;6.35;1.63;;;;;;;5.19;100.00;100141.41;5054270;28;20437;-86
2023/01/08 05:11:14;;;;;;;8.02;1.70;;;;;;;5.34;100.00;100144.63;5055605;28;20032;-81
2023/01/08 05:13:40;;;;;;;9.15;2.08;;;;;;;5.34;100.00;100140.16;5055545;28;20033;-85
2023/01/08 05:16:05;;;;;;;11.75;1.88;;;;;;;5.33;100.00;100135.88;5055566;28;20029;-84
2023/01/08 05:18:31;;;;;;;7.35;1.45;;;;;;;5.29;100.00;100142.34;5054848;28;20040;-83
2023/01/08 05:21:01;;;;;;;8.80;1.92;;;;;;;5.28;100.00;100143.31;5055160;28;20122;-84
2023/01/08 05:23:28;;;;;;;11.63;2.15;;;;;;;5.32;100.00;100142.09;5055071;28;20025;-84
2023/01/08 05:25:57;;;;;;;10.77;1.70;;;;;;;5.28;100.00;100138.88;5055076;28;20028;-86
2023/01/08 05:28:22;;;;;;;6.97;2.13;;;;;;;5.21;100.00;100144.75;5054155;28;20025;-82
2023/01/08 05:30:48;;;;;;;13.32;1.92;;;;;;;5.20;100.00;100137.81;5055042;28;20029;-84
2023/01/08 05:33:14;;;;;;;14.27;2.05;;;;;;;5.23;100.00;100141.03;5054809;28;20052;-84
2023/01/08 05:35:39;;;;;;;7.35;1.70;;;;;;;5.22;100.00;100136.72;5054968;28;20029;-84
2023/01/08 05:38:05;;;;;;;5.90;1.48;;;;;;;5.16;100.00;100139.00;5054856;28;20072;-85
2023/01/08 05:40:30;;;;;;;11.48;1.85;;;;;;;5.09;100.00;100139.50;5055439;28;20029;-84
2023/01/08 05:42:58;;;;;;;9.40;1.85;;;;;;;5.04;100.00;100136.38;5054540;28;20106;-85
2023/01/08 05:45:24;;;;;;;8.50;1.88;;;;;;;5.02;100.00;100140.09;5036747;28;20041;-85
2023/01/08 05:47:49;;;;;;;11.50;2.05;;;;;;;4.96;100.00;100141.41;5054559;28;20469;-84
2023/01/08 05:50:15;;;;;;;8.38;1.55;;;;;;;4.90;100.00;100142.72;5055267;28;20371;-85
2023/01/08 05:52:40;;;;;;;7.40;1.77;;;;;;;4.93;100.00;100139.03;5054658;28;20074;-85
2023/01/08 05:55:06;;;;;;;12.57;2.20;;;;;;;4.94;100.00;100140.69;5053925;28;20040;-85
2023/01/08 05:57:31;;;;;;;11.30;2.13;;;;;;;4.88;100.00;100146.44;5054678;28;20453;-83
2023/01/08 05:59:56;;;;;;;12.27;2.30;;;;;;;4.89;100.00;100148.94;5054330;28;20033;-82
2023/01/08 06:02:22;;;;;;;11.93;2.25;;;;;;;4.84;100.00;100147.66;5056798;28;20029;-85
2023/01/08 06:04:47;;;;;;;9.23;1.90;;;;;;;4.75;100.00;100147.41;5054530;28;20061;-86
2023/01/08 06:07:12;;;;;;;13.90;2.83;;;;;;;4.72;100.00;100152.06;5054211;28;20037;-83
2023/01/08 06:09:38;;;;;;;8.05;1.88;;;;;;;4.67;100.00;100154.22;5054597;28;20044;-85
2023/01/08 06:12:03;;;;;;;9.07;2.33;;;;;;;4.62;100.00;100156.38;5054561;28;20037;-85
2023/01/08 06:14:29;;;;;;;14.48;1.95;;;;;;;4.58;100.00;100153.97;5054197;28;20121;-84
2023/01/08 06:16:54;;;;;;;15.63;2.17;;;;;;;4.67;100.00;100155.06;5053876;28;20036;-85
2023/01/08 06:19:19;;;;;;;8.35;2.10;;;;;;;4.68;100.00;100148.00;5054056;28;20073;-86
2023/01/08 06:21:45;;;;;;;10.50;2.20;;;;;;;4.68;100.00;100148.81;5053156;28;20039;-84
2023/01/08 06:24:10;;;;;;;9.10;1.85;;;;;;;4.65;100.00;100140.31;5054430;28;20035;-85
2023/01/08 06:26:36;;;;;;;11.80;2.30;;;;;;;4.66;100.00;100141.97;5054077;28;20033;-84
2023/01/08 06:29:01;;;;;;;8.50;2.05;;;;;;;4.71;100.00;100135.41;5053918;28;20065;-83
2023/01/08 06:31:26;;;;;;;11.88;2.92;;;;;;;4.74;100.00;100129.88;5053809;28;20057;-84
2023/01/08 06:33:52;;;;;;;11.15;2.65;;;;;;;4.79;100.00;100128.69;5053484;28;20397;-84
2023/01/08 06:36:17;;;;;;;8.90;2.20;;;;;;;4.76;100.00;100140.31;5054045;28;20033;-84
2023/01/08 06:38:45;;;;;;;12.05;1.95;;;;;;;4.74;100.00;100144.88;5053234;28;20036;-84
2023/01/08 06:41:11;;;;;;;9.13;2.10;;;;;;;4.76;100.00;100142.94;5052235;28;20036;-87
2023/01/08 06:43:37;;;;;;;14.38;3.10;;;;;;;4.76;100.00;100127.13;5035686;28;20037;-86
2023/01/08 06:46:04;;;;;;;11.65;2.50;;;;;;;4.81;100.00;100132.03;5053528;28;20056;-86
2023/01/08 06:48:30;;;;;;;9.85;2.28;;;;;;;4.84;100.00;100132.66;5052021;28;20049;-85
2023/01/08 06:50:58;;;;;;;13.05;2.40;;;;;;;4.87;100.00;100123.69;5053660;28;20051;-85
2023/01/08 06:53:24;;;;;;;12.43;2.13;;;;;;;4.84;100.00;100116.84;5052780;28;20029;-86
2023/01/08 06:55:55;;;;;;;17.80;2.45;;;;;;;4.86;100.00;100128.09;5053487;28;20382;-85
2023/01/08 06:58:20;;;;;;;15.03;2.53;;;;;;;4.94;100.00;100131.00;5053678;28;20033;-85
2023/01/08 07:00:45;;;;;;;15.60;2.38;;;;;;;4.91;100.00;100131.22;5054170;28;20850;-85
2023/01/08 07:03:11;;;;;;;10.40;1.90;;;;;;;4.84;100.00;100123.94;5054263;28;20033;-85
2023/01/08 07:05:36;;;;;;;12.82;2.30;;;;;;;4.79;100.00;100124.25;5054647;28;20040;-83
2023/01/08 07:08:01;;;;;;;9.02;1.75;;;;;;;4.77;100.00;100126.19;5063245;28;20033;-85
2023/01/08 07:10:27;;;;;;;14.15;2.03;;;;;;;4.69;100.00;100126.78;5068793;28;20021;-85
2023/01/08 07:12:52;;;;;;;9.82;1.90;;;;;;;4.65;100.00;100121.88;5066911;28;20353;-82
2023/01/08 07:15:17;;;;;;;9.25;2.10;;;;;;;4.65;100.00;100133.25;5066088;28;20045;-84
2023/01/08 07:17:43;;;;;;;18.55;2.67;;;;;;;4.66;100.00;100120.91;5059958;28;20037;-86
2023/01/08 07:20:09;;;;;;;16.75;2.30;;;;;;;4.64;100.00;100123.66;5052733;28;20405;-86
2023/01/08 07:22:34;;;;;;;13.30;2.33;;;;;;;4.66;100.00;100126.16;5054260;28;20037;-85
2023/01/08 07:25:00;;;;;;;13.45;2.40;;;;;;;4.64;100.00;100123.66;5056787;28;20041;-88
2023/01/08 07:27:25;;;;;;;17.70;2.65;;;;;;;4.59;100.00;100121.38;5055189;28;20485;-84
2023/01/08 07:29:50;;;;;;;16.75;2.17;;;;;;;4.54;100.00;100114.81;5052619;28;20033;-84
2023/01/08 07:32:16;;;;;;;10.15;1.90;;;;;;;4.57;100.00;100117.19;5053332;28;20036;-84
2023/01/08 07:34:41;;;;;;;16.17;2.50;;;;;;;4.53;100.00;100111.31;5053119;28;20083;-87
2023/01/08 07:37:06;;;;;;;23.02;2.67;;;;;;;4.54;100.00;100114.81;5053367;28;20031;-86
2023/01/08 07:39:32;;;;;;;13.48;2.20;;;;;;;4.54;100.00;100120.91;5053269;28;20037;-85
2023/01/08 07:41:58;;;;;;;14.98;2.20;;;;;;;4.51;100.00;100117.66;5053151;28;20033;-84
2023/01/08 07:44:23;;;;;;;17.65;2.20;;;;;;;4.49;100.00;100122.19;5035273;28;20037;-85
2023/01/08 07:46:49;;;;;;;11.45;1.88;;;;;;;4.49;100.00;100114.28;5052861;28;20116;-85
2023/01/08 07:49:14;;;;;;;10.20;1.90;;;;;;;4.50;100.00;100118.63;5052739;28;20093;-83
2023/01/08 07:51:39;;;;;;;11.90;1.90;;;;;;;4.51;100.00;100117.66;5052723;28;20476;-86
2023/01/08 07:54:05;;;;;;;8.52;1.70;;;;;;;4.51;100.00;100122.91;5057050;28;20056;-84
2023/01/08 07:56:30;;;;;;;12.75;1.90;;;;;;;4.47;100.00;100121.50;5056894;28;20033;-84
2023/01/08 07:58:56;;;;;;;10.70;2.03;;;;;;;4.49;100.00;100114.28;5056721;28;20086;-84
2023/01/08 08:01:21;;;;;;;18.00;1.75;;;;;;;4.49;100.00;100124.84;5056870;28;20521;-84
2023/01/08 08:03:47;;;;;;;11.27;1.80;;;;;;;4.50;100.00;100116.00;5038748;28;20465;-84
2023/01/08 08:06:12;;;;;;;12.07;2.35;;;;;;;4.54;100.00;100114.81;5056297;28;20029;-84
2023/01/08 08:08:37;;;;;;;17.55;2.88;;;;;;;4.61;100.00;100096.72;5057012;28;20473;-84
2023/01/08 08:11:03;;;;;;;11.25;2.55;;;;;;;4.64;100.00;100099.09;5057145;28;20037;-88
2023/01/08 08:13:28;;;;;;;8.88;1.88;;;;;;;4.66;100.00;100092.75;5056123;28;20048;-84
2023/01/08 08:15:54;;;;;;;12.40;2.78;;;;;;;4.68;100.00;100097.91;5056183;28;20493;-83
2023/01/08 08:18:19;;;;;;;8.05;1.50;;;;;;;4.70;100.00;100107.38;5056318;28;20526;-83
2023/01/08 08:20:45;;;;;;;13.98;2.08;;;;;;;4.68;100.00;100101.38;5055109;28;20029;-83
2023/01/08 08:23:13;;;;;;;7.32;1.83;;;;;;;4.65;100.00;100084.97;5056155;28;20064;-84
2023/01/08 08:25:39;;;;;;;13.75;2.10;;;;;;;4.60;100.00;100082.72;5056168;28;20517;-83
2023/01/08 08:28:05;;;;;;;11.95;2.05;;;;;;;4.57;100.00;100083.78;5054898;28;20029;-83
2023/01/08 08:30:33;;;;;;;9.80;2.42;;;;;;;4.57;100.00;100077.69;5055769;28;20037;-83
2023/01/08 08:33:00;;;;;;;14.48;2.03;;;;;;;4.57;100.00;100080.31;5056081;28;20067;-83
2023/01/08 08:35:27;;;;;;;10.57;2.08;;;;;;;4.55;100.00;100077.78;5055645;28;20143;-83
2023/01/08 08:37:53;;;;;;;13.88;2.25;;;;;;;4.61;100.00;100073.00;5055985;28;20523;-82
2023/01/08 08:40:18;;;;;;;10.77;2.00;;;;;;;4.61;100.00;100067.72;5056284;28;20411;-81
2023/01/08 08:42:44;;;;;;;10.80;1.83;;;;;;;4.66;100.00;100078.72;5054290;28;20048;-82
2023/01/08 08:45:09;;;;;;;10.02;1.83;;;;;;;4.78;100.00;100077.78;5056037;28;20381;-83
2023/01/08 08:47:35;;;;;;;17.52;2.95;;;;;;;4.85;100.00;100078.13;5053978;28;20095;-84
2023/01/08 08:50:01;;;;;;;11.82;2.00;;;;;;;4.87;100.00;100078.88;5055677;28;20048;-80
2023/01/08 08:52:26;;;;;;;7.03;1.70;;;;;;;4.90;100.00;100074.19;5054249;28;20048;-83
2023/01/08 08:54:51;;;;;;;8.05;1.80;;;;;;;4.89;100.00;100075.13;5055839;28;20043;-84
2023/01/08 08:57:17;;;;;;;12.82;2.33;;;;;;;4.93;100.00;100060.75;5056360;28;20374;-86
2023/01/08 08:59:42;;;;;;;12.00;2.15;;;;;;;4.98;100.00;100063.03;5055789;28;20033;-87
2023/01/08 09:02:09;;;;;;;14.57;2.28;;;;;;;4.98;100.00;100063.03;5055495;28;20040;-82
2023/01/08 09:04:34;;;;;;;9.00;1.98;;;;;;;5.09;100.00;100059.53;5056055;28;20458;-82
2023/01/08 09:07:00;;;;;;;12.90;2.05;;;;;;;5.15;100.00;100060.84;5055390;28;20025;-83
2023/01/08 09:09:25;;;;;;;11.43;2.38;;;;;;;5.23;100.00;100055.81;5053754;28;20036;-80
2023/01/08 09:11:52;;;;;;;12.98;1.92;;;;;;;5.24;100.00;100049.53;5055295;28;20412;-78
2023/01/08 09:14:18;;;;;;;15.95;2.95;;;;;;;5.28;100.00;100051.84;5054802;28;20029;-77
2023/01/08 09:16:43;;;;;;;8.73;1.88;;;;;;;5.32;100.00;100044.50;5053615;28;20028;-78
2023/01/08 09:19:09;;;;;;;10.20;1.63;;;;;;;5.38;100.00;100046.63;5053458;28;20040;-80
2023/01/08 09:21:35;;;;;;;13.35;1.70;;;;;;;5.44;100.00;100051.41;5055423;28;20159;-77
2023/01/08 09:24:00;;;;;;;12.80;1.77;;;;;;;5.51;100.00;100040.34;5054716;28;20051;-77
2023/01/08 09:26:27;;;;;;;16.80;3.15;;;;;;;5.55;100.00;100049.69;5055059;28;20112;-77
2023/01/08 09:28:53;;;;;;;10.30;1.65;;;;;;;5.61;100.00;100044.78;5053500;28;20063;-77
2023/01/08 09:31:18;;;;;;;12.38;2.10;;;;;;;5.69;100.00;100043.28;5053492;28;20389;-76
2023/01/08 09:33:46;;;;;;;13.90;2.17;;;;;;;5.75;100.00;100050.72;5053198;28;20128;-76
2023/01/08 09:36:12;;;;;;;12.57;1.85;;;;;;;5.83;100.00;100054.34;5054968;28;20040;-76
2023/01/08 09:38:37;;;;;;;4.93;1.55;;;;;;;5.92;100.00;100044.00;5054232;28;20041;-76
2023/01/08 09:41:08;;;;;;;7.05;1.88;;;;;;;5.98;100.00;100048.81;5054594;28;20529;-75
2023/01/08 09:43:36;;;;;;;9.07;1.80;;;;;;;6.02;100.00;100041.44;5054355;28;20032;-75
2023/01/08 09:46:05;;;;;;;8.70;1.60;;;;;;;6.06;100.00;100045.50;5054460;28;20114;-75
2023/01/08 09:48:35;;;;;;;11.02;2.28;;;;;;;6.14;100.00;100046.53;5053878;28;20041;-77
2023/01/08 09:51:01;;;;;;;8.57;1.92;;;;;;;6.23;100.00;100052.84;5053946;28;20108;-75
2023/01/08 09:53:27;;;;;;;8.48;2.33;;;;;;;6.28;100.00;100034.81;5052612;28;20136;-76
2023/01/08 09:56:00;;;;;;;10.73;2.08;;;;;;;6.36;100.00;100042.09;5054231;28;20521;-77
2023/01/08 09:58:35;;;;;;;13.02;2.78;;;;;;;6.49;100.00;100045.38;5054830;28;20025;-81
2023/01/08 10:01:01;;;;;;;14.00;2.28;;;;;;;6.57;100.00;100043.84;5053484;28;20398;-80
2023/01/08 10:03:38;;;;;;;11.98;1.83;;;;;;;6.62;100.00;100045.13;5052966;28;20120;-79
2023/01/08 10:06:14;;;;;;;11.48;1.90;;;;;;;6.63;100.00;100044.16;5053712;28;20024;-80
2023/01/08 10:08:43;;;;;;;17.45;2.33;;;;;;;6.66;100.00;100038.59;5053163;28;20473;-81
2023/01/08 10:11:11;;;;;;;8.73;2.20;;;;;;;6.71;100.00;100041.66;5054204;28;20025;-83
2023/01/08 10:13:39;;;;;;;10.77;2.53;;;;;;;6.74;100.00;100039.75;5054291;28;20037;-81
2023/01/08 10:16:07;;;;;;;7.30;2.15;;;;;;;6.78;100.00;100031.41;5053275;28;20028;-80
2023/01/08 10:18:34;;;;;;;13.70;2.38;;;;;;;6.85;100.00;100031.69;5054273;28;20039;-79
2023/01/08 10:20:59;;;;;;;18.00;2.10;;;;;;;6.93;100.00;100029.22;5053958;28;20040;-79
2023/01/08 10:23:25;;;;;;;7.22;1.60;;;;;;;6.95;100.00;100029.09;5052394;28;20037;-77
2023/01/08 10:25:56;;;;;;;9.38;2.22;;;;;;;6.99;100.00;100030.50;5054367;28;20416;-81
2023/01/08 10:28:27;;;;;;;9.65;1.98;;;;;;;7.01;100.00;100037.31;5053779;28;20029;-76
2023/01/08 10:30:58;;;;;;;13.73;2.17;;;;;;;7.06;100.00;100034.25;5053817;28;20033;-77
2023/01/08 10:33:30;;;;;;;5.32;1.60;;;;;;;7.10;100.00;100021.59;5052976;28;20112;-78
2023/01/08 10:36:04;;;;;;;11.77;1.92;;;;;;;7.17;100.00;100017.44;5054312;28;20033;-79
2023/01/08 10:38:32;;;;;;;11.50;2.47;;;;;;;7.22;100.00;100016.03;5053354;28;20035;-79
2023/01/08 10:41:00;;;;;;;9.55;2.40;;;;;;;7.29;100.00;99995.16;5052599;28;20025;-80
2023/01/08 10:43:35;;;;;;;14.55;2.65;;;;;;;7.39;100.00;100000.47;5053600;28;20052;-83
2023/01/08 10:46:05;;;;;;;10.88;2.10;;;;;;;7.32;100.00;99997.53;5053716;28;20032;-83
2023/01/08 10:48:35;;;;;;;10.30;2.17;;;;;;;7.32;100.00;99986.94;5053863;28;20091;-78
2023/01/08 10:51:23;;;;;;;10.32;2.05;;;;;;;7.32;100.00;99988.78;5053850;28;20025;-79
2023/01/08 10:53:50;;;;;;;7.07;2.17;;;;;;;7.34;100.00;99992.94;5053486;28;20055;-78
2023/01/08 10:56:20;;;;;;;10.93;2.00;;;;;;;7.37;100.00;99990.00;5053516;28;20065;-80
2023/01/08 10:58:47;;;;;;;9.85;2.13;;;;;;;7.37;100.00;99986.53;5053364;28;20122;-79
2023/01/08 11:01:21;;;;;;;8.57;2.35;;;;;;;7.54;100.00;99996.44;5053098;28;20037;-80
2023/01/08 11:03:56;;;;;;;13.30;2.03;;;;;;;7.84;100.00;99985.81;5053244;28;20036;-79
2023/01/08 11:06:26;;;;;;;5.90;1.58;;;;;;;7.92;100.00;99983.28;5053483;28;20025;-84
2023/01/08 11:08:58;;;;;;;14.90;2.38;;;;;;;7.89;100.00;99984.38;5053661;28;20029;-79
2023/01/08 11:11:31;;;;;;;5.35;1.90;;;;;;;8.03;100.00;99985.78;5052639;28;20048;-82
2023/01/08 11:13:59;;;;;;;8.80;2.28;;;;;;;8.17;100.00;99970.41;5053637;28;20067;-82
2023/01/08 11:16:39;;;;;;;10.88;2.17;;;;;;;8.25;100.00;99979.25;5053457;28;20025;-79
2023/01/08 11:19:24;;;;;;;6.60;1.73;;;;;;;8.12;100.00;99974.31;5053556;28;20036;-80
2023/01/08 11:22:01;;;;;;;6.32;1.70;;;;;;;8.14;100.00;99960.09;5053061;28;20029;-78
2023/01/08 11:24:31;;;;;;;12.90;2.70;;;;;;;8.12;100.00;99957.56;5052885;28;20540;-77